createdAt,value
2019-03-10T00:00:05.224Z,1006.41
2019-03-10T00:01:05.201Z,1006.38
2019-03-10T00:02:05.151Z,1006.41
2019-03-10T00:03:05.124Z,1006.40
2019-03-10T00:04:05.102Z,1006.38
2019-03-10T00:05:05.059Z,1006.36
2019-03-10T00:06:05.020Z,1006.40
2019-03-10T00:07:04.991Z,1006.41
2019-03-10T00:08:04.969Z,1006.32
2019-03-10T00:09:04.915Z,1006.30
2019-03-10T00:10:04.882Z,1006.30
2019-03-10T00:11:04.861Z,1006.28
2019-03-10T00:12:04.810Z,1006.27
2019-03-10T00:13:04.774Z,1006.23
2019-03-10T00:14:04.737Z,1006.20
2019-03-10T00:15:04.703Z,1006.18
2019-03-10T00:16:04.698Z,1006.14
2019-03-10T00:17:04.645Z,1006.05
2019-03-10T00:18:04.615Z,1006.09
2019-03-10T00:19:04.566Z,1006.04
2019-03-10T00:20:04.537Z,1006.04
2019-03-10T00:21:04.484Z,1006.07
2019-03-10T00:22:04.465Z,1006.08
2019-03-10T00:23:04.420Z,1006.07
2019-03-10T00:24:04.410Z,1006.02
2019-03-10T00:25:04.350Z,1006.00
2019-03-10T00:26:04.322Z,1006.00
2019-03-10T00:27:04.276Z,1005.91
2019-03-10T00:28:04.250Z,1005.94
2019-03-10T00:29:04.211Z,1005.94
2019-03-10T00:30:04.175Z,1005.92
2019-03-10T00:31:04.137Z,1005.97
2019-03-10T00:32:04.119Z,1005.94
2019-03-10T00:33:04.073Z,1005.86
2019-03-10T00:34:04.047Z,1005.84
2019-03-10T00:35:04.001Z,1005.78
2019-03-10T00:36:03.969Z,1005.74
2019-03-10T00:37:03.937Z,1005.75
2019-03-10T00:38:03.898Z,1005.74
2019-03-10T00:39:03.862Z,1005.73
2019-03-10T00:40:03.828Z,1005.74
2019-03-10T00:41:03.797Z,1005.74
2019-03-10T00:42:03.752Z,1005.68
2019-03-10T00:43:03.725Z,1005.71
2019-03-10T00:44:03.685Z,1005.68
2019-03-10T00:45:03.654Z,1005.69
2019-03-10T00:46:03.613Z,1005.73
2019-03-10T00:47:03.581Z,1005.72
2019-03-10T00:48:03.546Z,1005.76
2019-03-10T00:49:03.512Z,1005.77
2019-03-10T00:50:03.475Z,1005.80
2019-03-10T00:51:03.443Z,1005.81
2019-03-10T00:52:03.407Z,1005.78
2019-03-10T00:53:03.368Z,1005.75
2019-03-10T00:54:03.341Z,1005.70
2019-03-10T00:55:03.298Z,1005.68
2019-03-10T00:56:03.271Z,1005.68
2019-03-10T00:57:03.255Z,1005.61
2019-03-10T00:58:03.202Z,1005.64
2019-03-10T00:59:03.164Z,1005.66
2019-03-10T01:00:03.123Z,1005.64
2019-03-10T01:01:03.094Z,1005.65
2019-03-10T01:02:03.057Z,1005.66
2019-03-10T01:03:03.027Z,1005.63
2019-03-10T01:04:02.994Z,1005.59
2019-03-10T01:05:02.958Z,1005.58
2019-03-10T01:06:02.930Z,1005.56
2019-03-10T01:07:02.895Z,1005.57
2019-03-10T01:08:02.860Z,1005.55
2019-03-10T01:09:02.814Z,1005.56
2019-03-10T01:10:02.807Z,1005.58
2019-03-10T01:11:02.743Z,1005.53
2019-03-10T01:12:02.709Z,1005.47
2019-03-10T01:13:02.678Z,1005.47
2019-03-10T01:14:02.639Z,1005.43
2019-03-10T01:15:02.603Z,1005.41
2019-03-10T01:16:02.573Z,1005.39
2019-03-10T01:17:02.525Z,1005.36
2019-03-10T01:18:02.508Z,1005.37
2019-03-10T01:19:02.459Z,1005.34
2019-03-10T01:20:02.419Z,1005.35
2019-03-10T01:21:02.395Z,1005.32
2019-03-10T01:22:02.356Z,1005.27
2019-03-10T01:23:02.320Z,1005.21
2019-03-10T01:24:02.291Z,1005.25
2019-03-10T01:25:02.261Z,1005.17
2019-03-10T01:26:02.211Z,1005.14
2019-03-10T01:27:02.187Z,1005.11
2019-03-10T01:28:02.148Z,1005.13
2019-03-10T01:29:02.125Z,1005.08
2019-03-10T01:30:02.085Z,1005.00
2019-03-10T01:31:02.046Z,1005.00
2019-03-10T01:32:02.014Z,1004.93
2019-03-10T01:33:01.974Z,1004.89
2019-03-10T01:34:01.940Z,1004.83
2019-03-10T01:35:01.914Z,1004.78
2019-03-10T01:36:01.874Z,1004.69
2019-03-10T01:37:01.833Z,1004.63
2019-03-10T01:38:01.799Z,1004.58
2019-03-10T01:39:01.765Z,1004.57
2019-03-10T01:40:01.729Z,1004.55
2019-03-10T01:41:01.692Z,1004.52
2019-03-10T01:42:01.662Z,1004.49
2019-03-10T01:43:01.620Z,1004.46
2019-03-10T01:44:01.585Z,1004.44
2019-03-10T01:45:01.558Z,1004.39
2019-03-10T01:46:01.523Z,1004.35
2019-03-10T01:47:01.478Z,1004.29
2019-03-10T01:48:01.445Z,1004.27
2019-03-10T01:49:01.412Z,1004.28
2019-03-10T01:50:01.381Z,1004.20
2019-03-10T01:51:01.355Z,1004.18
2019-03-10T01:52:01.311Z,1004.16
2019-03-10T01:53:01.265Z,1004.11
2019-03-10T01:54:01.241Z,1004.11
2019-03-10T01:55:01.210Z,1004.07
2019-03-10T01:56:01.168Z,1004.06
2019-03-10T01:57:01.131Z,1004.04
2019-03-10T01:58:01.097Z,1004.02
2019-03-10T01:59:01.067Z,1003.92
2019-03-10T02:00:01.027Z,1003.90
2019-03-10T02:01:00.997Z,1003.83
2019-03-10T02:02:00.972Z,1003.77
2019-03-10T02:03:00.930Z,1003.76
2019-03-10T02:04:00.886Z,1003.77
2019-03-10T02:05:00.851Z,1003.73
2019-03-10T02:06:00.821Z,1003.72
2019-03-10T02:07:00.777Z,1003.69
2019-03-10T02:08:00.746Z,1003.63
2019-03-10T02:09:00.722Z,1003.56
2019-03-10T02:10:00.692Z,1003.56
2019-03-10T02:11:00.643Z,1003.54
2019-03-10T02:12:00.603Z,1003.54
2019-03-10T02:13:00.571Z,1003.46
2019-03-10T02:14:00.543Z,1003.44
2019-03-10T02:15:00.504Z,1003.39
2019-03-10T02:16:00.466Z,1003.38
2019-03-10T02:17:00.431Z,1003.36
2019-03-10T02:18:00.398Z,1003.34
2019-03-10T02:19:00.361Z,1003.33
2019-03-10T02:20:00.327Z,1003.31
2019-03-10T02:21:00.291Z,1003.28
2019-03-10T02:22:00.318Z,1003.26
2019-03-10T02:23:00.224Z,1003.27
2019-03-10T02:24:00.187Z,1003.21
2019-03-10T02:25:00.248Z,1003.21
2019-03-10T02:26:00.127Z,1003.14
2019-03-10T02:27:00.082Z,1003.10
2019-03-10T02:28:00.048Z,1003.06
2019-03-10T02:29:00.009Z,1003.04
2019-03-10T02:29:59.984Z,1003.04
2019-03-10T02:30:59.945Z,1002.96
2019-03-10T02:31:59.914Z,1002.98
2019-03-10T02:32:59.878Z,1002.91
2019-03-10T02:33:59.835Z,1002.86
2019-03-10T02:34:59.795Z,1002.86
2019-03-10T02:35:59.871Z,1002.79
2019-03-10T02:36:59.737Z,1002.80
2019-03-10T02:37:59.703Z,1002.72
2019-03-10T02:38:59.663Z,1002.69
2019-03-10T02:39:59.637Z,1002.68
2019-03-10T02:40:59.595Z,1002.65
2019-03-10T02:41:59.553Z,1002.59
2019-03-10T02:42:59.516Z,1002.56
2019-03-10T02:43:59.485Z,1002.53
2019-03-10T02:44:59.455Z,1002.47
2019-03-10T02:45:59.448Z,1002.48
2019-03-10T02:46:59.379Z,1002.43
2019-03-10T02:47:59.349Z,1002.40
2019-03-10T02:48:59.306Z,1002.36
2019-03-10T02:49:59.279Z,1002.35
2019-03-10T02:50:59.235Z,1002.35
2019-03-10T02:51:59.203Z,1002.38
2019-03-10T02:52:59.172Z,1002.34
2019-03-10T02:53:59.149Z,1002.33
2019-03-10T02:54:59.104Z,1002.31
2019-03-10T02:55:59.062Z,1002.28
2019-03-10T02:56:59.018Z,1002.30
2019-03-10T02:57:58.989Z,1002.24
2019-03-10T02:58:58.955Z,1002.27
2019-03-10T02:59:58.923Z,1002.19
2019-03-10T03:00:58.889Z,1002.18
2019-03-10T03:01:58.862Z,1002.14
2019-03-10T03:02:58.816Z,1002.05
2019-03-10T03:03:58.785Z,1002.02
2019-03-10T03:04:58.745Z,1002.00
2019-03-10T03:05:58.709Z,1001.99
2019-03-10T03:06:58.703Z,1001.94
2019-03-10T03:07:58.636Z,1001.98
2019-03-10T03:08:58.600Z,1001.97
2019-03-10T03:09:58.561Z,1001.93
2019-03-10T03:10:58.534Z,1001.91
2019-03-10T03:11:58.499Z,1001.88
2019-03-10T03:12:58.460Z,1001.89
2019-03-10T03:13:58.426Z,1001.85
2019-03-10T03:14:58.385Z,1001.83
2019-03-10T03:15:58.361Z,1001.78
2019-03-10T03:16:58.328Z,1001.74
2019-03-10T03:17:58.291Z,1001.67
2019-03-10T03:18:58.254Z,1001.65
2019-03-10T03:19:58.225Z,1001.58
2019-03-10T03:20:58.192Z,1001.57
2019-03-10T03:21:58.146Z,1001.57
2019-03-10T03:22:58.117Z,1001.56
2019-03-10T03:23:58.088Z,1001.52
2019-03-10T03:24:58.038Z,1001.58
2019-03-10T03:25:58.013Z,1001.51
2019-03-10T03:26:57.979Z,1001.51
2019-03-10T03:27:57.950Z,1001.44
2019-03-10T03:28:57.895Z,1001.43
2019-03-10T03:29:57.866Z,1001.34
2019-03-10T03:30:57.840Z,1001.27
2019-03-10T03:31:57.797Z,1001.23
2019-03-10T03:32:57.754Z,1001.20
2019-03-10T03:33:57.741Z,1001.16
2019-03-10T03:34:57.696Z,1001.12
2019-03-10T03:35:57.660Z,1001.11
2019-03-10T03:36:57.659Z,1001.07
2019-03-10T03:37:57.577Z,1001.05
2019-03-10T03:38:57.554Z,1001.00
2019-03-10T03:39:57.524Z,1001.00
2019-03-10T03:40:57.492Z,1000.98
2019-03-10T03:41:57.441Z,1001.03
2019-03-10T03:42:57.404Z,1000.98
2019-03-10T03:43:57.387Z,1000.95
2019-03-10T03:44:57.342Z,1000.94
2019-03-10T03:45:57.309Z,1000.93
2019-03-10T03:46:57.283Z,1000.92
2019-03-10T03:47:57.229Z,1000.90
2019-03-10T03:48:57.197Z,1000.87
2019-03-10T03:49:57.157Z,1000.83
2019-03-10T03:50:57.123Z,1000.82
2019-03-10T03:51:57.092Z,1000.82
2019-03-10T03:52:57.046Z,1000.77
2019-03-10T03:53:57.042Z,1000.69
2019-03-10T03:54:56.981Z,1000.65
2019-03-10T03:55:56.953Z,1000.57
2019-03-10T03:56:56.933Z,1000.52
2019-03-10T03:57:56.941Z,1000.49
2019-03-10T03:58:56.835Z,1000.43
2019-03-10T03:59:56.793Z,1000.36
2019-03-10T04:00:56.800Z,1000.31
2019-03-10T04:01:56.723Z,1000.31
2019-03-10T04:02:56.735Z,1000.28
2019-03-10T04:03:56.678Z,1000.23
2019-03-10T04:04:56.620Z,1000.21
2019-03-10T04:05:56.580Z,1000.21
2019-03-10T04:06:56.564Z,1000.18
2019-03-10T04:07:56.525Z,1000.16
2019-03-10T04:08:56.480Z,1000.19
2019-03-10T04:09:56.450Z,1000.12
2019-03-10T04:10:56.409Z,1000.10
2019-03-10T04:11:56.402Z,1000.10
2019-03-10T04:12:56.354Z,1000.12
2019-03-10T04:13:56.324Z,1000.10
2019-03-10T04:14:56.264Z,1000.07
2019-03-10T04:15:56.230Z,1000.07
2019-03-10T04:16:56.194Z,1000.04
2019-03-10T04:17:56.165Z,1000.01
2019-03-10T04:18:56.126Z,1000.00
2019-03-10T04:19:56.090Z,999.96
2019-03-10T04:20:56.054Z,999.92
2019-03-10T04:21:56.016Z,999.92
2019-03-10T04:22:55.991Z,999.86
2019-03-10T04:23:55.955Z,999.84
2019-03-10T04:24:55.907Z,999.84
2019-03-10T04:25:55.879Z,999.78
2019-03-10T04:26:55.835Z,999.75
2019-03-10T04:27:55.805Z,999.71
2019-03-10T04:28:55.783Z,999.68
2019-03-10T04:29:55.731Z,999.62
2019-03-10T04:30:55.699Z,999.62
2019-03-10T04:31:55.666Z,999.55
2019-03-10T04:32:55.637Z,999.49
2019-03-10T04:33:55.590Z,999.41
2019-03-10T04:34:55.561Z,999.39
2019-03-10T04:35:55.524Z,999.32
2019-03-10T04:36:55.485Z,999.29
2019-03-10T04:37:55.471Z,999.28
2019-03-10T04:38:55.406Z,999.26
2019-03-10T04:39:55.373Z,999.26
2019-03-10T04:40:55.339Z,999.21
2019-03-10T04:41:55.297Z,999.18
2019-03-10T04:42:56.160Z,999.13
2019-03-10T04:43:55.231Z,999.11
2019-03-10T04:44:55.207Z,999.08
2019-03-10T04:45:55.158Z,999.07
2019-03-10T04:46:55.122Z,999.02
2019-03-10T04:47:55.089Z,999.00
2019-03-10T04:48:55.052Z,999.00
2019-03-10T04:49:55.027Z,998.94
2019-03-10T04:50:54.976Z,998.91
2019-03-10T04:51:54.941Z,998.82
2019-03-10T04:52:54.914Z,998.77
2019-03-10T04:53:54.862Z,998.73
2019-03-10T04:54:54.837Z,998.66
2019-03-10T04:55:54.791Z,998.62
2019-03-10T04:56:54.752Z,998.52
2019-03-10T04:57:54.721Z,998.45
2019-03-10T04:58:54.687Z,998.39
2019-03-10T04:59:54.684Z,998.34
2019-03-10T05:00:54.613Z,998.29
2019-03-10T05:01:54.585Z,998.30
2019-03-10T05:02:54.548Z,998.23
2019-03-10T05:03:54.506Z,998.15
2019-03-10T05:04:54.474Z,998.12
2019-03-10T05:05:54.442Z,998.08
2019-03-10T05:06:54.403Z,998.02
2019-03-10T05:07:54.373Z,997.98
2019-03-10T05:08:54.327Z,997.91
2019-03-10T05:09:54.293Z,997.87
2019-03-10T05:10:54.266Z,997.79
2019-03-10T05:11:54.244Z,997.75
2019-03-10T05:12:54.198Z,997.70
2019-03-10T05:13:54.146Z,997.63
2019-03-10T05:14:54.134Z,997.59
2019-03-10T05:15:54.072Z,997.53
2019-03-10T05:16:54.077Z,997.44
2019-03-10T05:17:54.000Z,997.33
2019-03-10T05:18:53.978Z,997.36
2019-03-10T05:19:53.949Z,997.35
2019-03-10T05:20:53.898Z,997.33
2019-03-10T05:21:53.867Z,997.34
2019-03-10T05:22:53.824Z,997.35
2019-03-10T05:23:53.807Z,997.31
2019-03-10T05:24:53.753Z,997.25
2019-03-10T05:25:53.720Z,997.15
2019-03-10T05:26:53.684Z,997.08
2019-03-10T05:27:53.654Z,997.01
2019-03-10T05:28:53.608Z,996.96
2019-03-10T05:29:53.575Z,996.91
2019-03-10T05:30:53.538Z,996.93
2019-03-10T05:31:53.514Z,996.89
2019-03-10T05:32:53.464Z,996.92
2019-03-10T05:33:53.438Z,996.88
2019-03-10T05:34:53.418Z,996.85
2019-03-10T05:35:53.389Z,996.84
2019-03-10T05:36:53.323Z,996.83
2019-03-10T05:37:53.334Z,996.80
2019-03-10T05:38:53.257Z,996.74
2019-03-10T05:39:53.219Z,996.73
2019-03-10T05:40:53.188Z,996.67
2019-03-10T05:41:53.154Z,996.57
2019-03-10T05:42:53.122Z,996.54
2019-03-10T05:43:53.073Z,996.51
2019-03-10T05:44:53.032Z,996.41
2019-03-10T05:45:53.000Z,996.37
2019-03-10T05:46:52.980Z,996.36
2019-03-10T05:47:52.953Z,996.31
2019-03-10T05:48:52.885Z,996.24
2019-03-10T05:49:52.858Z,996.24
2019-03-10T05:50:52.815Z,996.21
2019-03-10T05:51:52.800Z,996.17
2019-03-10T05:52:52.753Z,996.14
2019-03-10T05:53:52.714Z,996.03
2019-03-10T05:54:52.684Z,996.13
2019-03-10T05:55:52.641Z,996.22
2019-03-10T05:56:52.626Z,996.28
2019-03-10T05:57:52.571Z,996.29
2019-03-10T05:58:52.529Z,995.80
2019-03-10T05:59:52.499Z,995.68
2019-03-10T06:00:52.458Z,995.81
2019-03-10T06:01:52.434Z,996.24
2019-03-10T06:02:52.418Z,996.36
2019-03-10T06:03:52.360Z,996.21
2019-03-10T06:04:52.344Z,996.17
2019-03-10T06:05:52.279Z,996.08
2019-03-10T06:06:52.260Z,995.97
2019-03-10T06:07:52.206Z,995.88
2019-03-10T06:08:52.174Z,995.72
2019-03-10T06:09:52.136Z,995.76
2019-03-10T06:10:52.108Z,995.55
2019-03-10T06:11:52.086Z,995.49
2019-03-10T06:12:52.027Z,995.53
2019-03-10T06:13:52.054Z,995.59
2019-03-10T06:14:51.956Z,995.65
2019-03-10T06:15:51.936Z,995.74
2019-03-10T06:16:51.896Z,995.77
2019-03-10T06:17:51.875Z,995.49
2019-03-10T06:18:51.811Z,995.42
2019-03-10T06:19:51.771Z,995.46
2019-03-10T06:20:51.761Z,995.30
2019-03-10T06:21:51.730Z,995.27
2019-03-10T06:22:51.670Z,995.11
2019-03-10T06:23:51.626Z,995.09
2019-03-10T06:24:51.611Z,994.94
2019-03-10T06:25:51.559Z,994.93
2019-03-10T06:26:51.527Z,994.98
2019-03-10T06:27:51.478Z,995.01
2019-03-10T06:28:51.448Z,995.01
2019-03-10T06:29:51.432Z,994.94
2019-03-10T06:30:51.381Z,994.72
2019-03-10T06:31:51.344Z,994.67
2019-03-10T06:32:51.304Z,994.63
2019-03-10T06:33:51.272Z,994.65
2019-03-10T06:34:51.238Z,994.68
2019-03-10T06:35:51.196Z,994.70
2019-03-10T06:36:51.171Z,994.57
2019-03-10T06:37:51.165Z,994.52
2019-03-10T06:38:51.108Z,994.60
2019-03-10T06:39:51.071Z,994.72
2019-03-10T06:40:51.023Z,994.73
2019-03-10T06:41:51.001Z,994.64
2019-03-10T06:42:50.972Z,994.61
2019-03-10T06:43:50.922Z,994.63
2019-03-10T06:44:50.870Z,994.62
2019-03-10T06:45:50.836Z,994.65
2019-03-10T06:46:50.787Z,994.55
2019-03-10T06:47:50.771Z,994.50
2019-03-10T06:48:50.732Z,994.51
2019-03-10T06:49:50.724Z,994.50
2019-03-10T06:50:50.651Z,994.44
2019-03-10T06:51:50.637Z,994.42
2019-03-10T06:52:50.605Z,994.44
2019-03-10T06:53:50.546Z,994.48
2019-03-10T06:54:50.519Z,994.48
2019-03-10T06:55:50.466Z,994.39
2019-03-10T06:56:50.432Z,994.38
2019-03-10T06:57:50.401Z,994.42
2019-03-10T06:58:50.353Z,994.36
2019-03-10T06:59:50.360Z,994.28
2019-03-10T07:00:50.299Z,994.17
2019-03-10T07:01:50.247Z,994.15
2019-03-10T07:02:50.227Z,994.12
2019-03-10T07:03:50.217Z,994.18
2019-03-10T07:04:50.137Z,994.16
2019-03-10T07:05:50.140Z,994.08
2019-03-10T07:06:50.067Z,994.06
2019-03-10T07:07:50.040Z,993.99
2019-03-10T07:08:50.014Z,993.98
2019-03-10T07:09:49.969Z,993.99
2019-03-10T07:10:49.924Z,994.01
2019-03-10T07:11:49.893Z,994.03
2019-03-10T07:12:49.849Z,994.00
2019-03-10T07:13:49.820Z,993.98
2019-03-10T07:14:49.781Z,994.01
2019-03-10T07:15:49.743Z,993.92
2019-03-10T07:16:49.715Z,993.87
2019-03-10T07:17:49.673Z,993.83
2019-03-10T07:18:49.648Z,993.73
2019-03-10T07:19:49.622Z,993.71
2019-03-10T07:20:49.565Z,993.70
2019-03-10T07:21:49.534Z,993.73
2019-03-10T07:22:49.498Z,993.78
2019-03-10T07:23:49.483Z,993.76
2019-03-10T07:24:49.441Z,993.70
2019-03-10T07:25:49.383Z,993.73
2019-03-10T07:26:49.346Z,993.75
2019-03-10T07:27:49.319Z,993.70
2019-03-10T07:28:49.281Z,993.63
2019-03-10T07:29:49.249Z,993.58
2019-03-10T07:30:49.203Z,993.50
2019-03-10T07:31:49.173Z,993.47
2019-03-10T07:32:49.141Z,993.53
2019-03-10T07:33:49.109Z,993.48
2019-03-10T07:34:49.064Z,993.52
2019-03-10T07:35:49.031Z,993.45
2019-03-10T07:36:49.011Z,993.46
2019-03-10T07:37:48.960Z,993.32
2019-03-10T07:38:48.929Z,993.38
2019-03-10T07:39:48.889Z,993.37
2019-03-10T07:40:48.850Z,993.47
2019-03-10T07:41:48.845Z,993.36
2019-03-10T07:42:48.775Z,993.34
2019-03-10T07:43:48.739Z,993.29
2019-03-10T07:44:48.707Z,993.31
2019-03-10T07:45:48.674Z,993.38
2019-03-10T07:46:48.645Z,993.31
2019-03-10T07:47:48.601Z,993.27
2019-03-10T07:48:48.568Z,993.27
2019-03-10T07:49:48.537Z,993.34
2019-03-10T07:50:48.501Z,993.26
2019-03-10T07:51:48.460Z,993.33
2019-03-10T07:52:48.447Z,993.27
2019-03-10T07:53:48.384Z,993.23
2019-03-10T07:54:48.366Z,993.27
2019-03-10T07:55:48.321Z,993.26
2019-03-10T07:56:48.283Z,993.24
2019-03-10T07:57:48.249Z,993.24
2019-03-10T07:58:48.222Z,993.15
2019-03-10T07:59:48.188Z,993.13
2019-03-10T08:00:48.141Z,993.14
2019-03-10T08:01:48.102Z,993.05
2019-03-10T08:02:48.090Z,993.12
2019-03-10T08:03:48.037Z,993.09
2019-03-10T08:04:48.008Z,993.04
2019-03-10T08:05:47.984Z,993.00
2019-03-10T08:06:47.926Z,993.02
2019-03-10T08:07:47.892Z,992.97
2019-03-10T08:08:47.857Z,992.98
2019-03-10T08:09:47.825Z,992.95
2019-03-10T08:10:47.799Z,992.89
2019-03-10T08:11:47.756Z,993.01
2019-03-10T08:12:47.718Z,992.96
2019-03-10T08:13:47.681Z,993.06
2019-03-10T08:14:47.644Z,992.91
2019-03-10T08:15:47.618Z,992.83
2019-03-10T08:16:47.596Z,992.91
2019-03-10T08:17:47.538Z,992.82
2019-03-10T08:18:47.507Z,992.78
2019-03-10T08:19:47.482Z,992.84
2019-03-10T08:20:47.432Z,992.82
2019-03-10T08:21:47.412Z,992.75
2019-03-10T08:22:47.387Z,992.76
2019-03-10T08:23:47.343Z,992.79
2019-03-10T08:24:47.304Z,992.81
2019-03-10T08:25:47.274Z,992.77
2019-03-10T08:26:47.234Z,992.88
2019-03-10T08:27:47.203Z,992.74
2019-03-10T08:28:47.172Z,992.84
2019-03-10T08:29:47.129Z,992.87
2019-03-10T08:30:47.094Z,992.94
2019-03-10T08:31:47.084Z,992.98
2019-03-10T08:32:47.038Z,992.92
2019-03-10T08:33:47.012Z,992.99
2019-03-10T08:34:46.960Z,992.99
2019-03-10T08:35:46.932Z,992.99
2019-03-10T08:36:46.895Z,992.94
2019-03-10T08:37:46.875Z,992.97
2019-03-10T08:38:46.850Z,993.00
2019-03-10T08:39:46.814Z,993.04
2019-03-10T08:40:46.774Z,993.08
2019-03-10T08:41:46.745Z,993.00
2019-03-10T08:42:46.703Z,993.10
2019-03-10T08:43:46.676Z,993.02
2019-03-10T08:44:46.635Z,993.08
2019-03-10T08:45:46.599Z,993.02
2019-03-10T08:46:46.573Z,993.38
2019-03-10T08:47:46.539Z,993.04
2019-03-10T08:48:46.512Z,992.98
2019-03-10T08:49:46.464Z,992.97
2019-03-10T08:50:46.436Z,992.96
2019-03-10T08:51:46.422Z,992.94
2019-03-10T08:52:46.364Z,992.88
2019-03-10T08:53:46.339Z,992.85
2019-03-10T08:54:46.380Z,993.01
2019-03-10T08:55:46.279Z,992.87
2019-03-10T08:56:46.246Z,992.92
2019-03-10T08:57:46.214Z,992.96
2019-03-10T08:58:46.178Z,992.95
2019-03-10T08:59:46.139Z,992.95
2019-03-10T09:00:46.108Z,992.95
2019-03-10T09:01:46.079Z,993.02
2019-03-10T09:02:46.036Z,992.95
2019-03-10T09:03:46.015Z,993.07
2019-03-10T09:04:45.976Z,993.16
2019-03-10T09:05:45.961Z,993.03
2019-03-10T09:06:45.926Z,992.99
2019-03-10T09:07:45.877Z,993.13
2019-03-10T09:08:45.851Z,992.97
2019-03-10T09:09:46.014Z,993.05
2019-03-10T09:10:45.786Z,993.02
2019-03-10T09:11:45.766Z,993.04
2019-03-10T09:12:45.711Z,993.07
2019-03-10T09:13:45.685Z,993.05
2019-03-10T09:14:45.650Z,993.01
2019-03-10T09:15:45.620Z,993.10
2019-03-10T09:16:45.588Z,993.07
2019-03-10T09:17:45.557Z,993.00
2019-03-10T09:18:45.537Z,992.96
2019-03-10T09:19:45.481Z,993.05
2019-03-10T09:20:45.450Z,992.91
2019-03-10T09:21:45.429Z,992.90
2019-03-10T09:22:45.386Z,993.00
2019-03-10T09:23:45.360Z,992.84
2019-03-10T09:24:45.352Z,992.86
2019-03-10T09:25:45.297Z,992.87
2019-03-10T09:26:45.262Z,992.88
2019-03-10T09:27:45.248Z,992.85
2019-03-10T09:28:45.196Z,992.81
2019-03-10T09:29:45.159Z,992.83
2019-03-10T09:30:45.127Z,992.94
2019-03-10T09:31:45.095Z,992.87
2019-03-10T09:32:45.062Z,992.91
2019-03-10T09:33:45.046Z,992.82
2019-03-10T09:34:44.999Z,992.84
2019-03-10T09:35:44.966Z,992.74
2019-03-10T09:36:44.937Z,992.74
2019-03-10T09:37:44.907Z,992.72
2019-03-10T09:38:44.882Z,992.74
2019-03-10T09:39:44.833Z,992.64
2019-03-10T09:40:44.787Z,992.79
2019-03-10T09:41:44.768Z,992.76
2019-03-10T09:42:44.736Z,992.94
2019-03-10T09:43:44.714Z,992.89
2019-03-10T09:44:44.658Z,992.82
2019-03-10T09:45:44.630Z,992.86
2019-03-10T09:46:44.606Z,992.76
2019-03-10T09:47:44.566Z,992.74
2019-03-10T09:48:44.529Z,992.64
2019-03-10T09:49:44.508Z,992.66
2019-03-10T09:50:44.458Z,992.66
2019-03-10T09:51:44.431Z,992.59
2019-03-10T09:52:44.411Z,992.69
2019-03-10T09:53:44.362Z,992.61
2019-03-10T09:54:44.342Z,992.73
2019-03-10T09:55:44.308Z,992.58
2019-03-10T09:56:44.264Z,992.67
2019-03-10T09:57:44.237Z,992.58
2019-03-10T09:58:44.207Z,992.55
2019-03-10T09:59:44.168Z,992.48
2019-03-10T10:00:44.122Z,992.55
2019-03-10T10:01:44.099Z,992.43
2019-03-10T10:02:44.058Z,992.44
2019-03-10T10:03:44.038Z,992.44
2019-03-10T10:04:43.994Z,992.31
2019-03-10T10:05:43.969Z,992.35
2019-03-10T10:06:43.933Z,992.44
2019-03-10T10:07:43.924Z,992.52
2019-03-10T10:08:45.353Z,992.34
2019-03-10T10:09:43.833Z,992.32
2019-03-10T10:10:43.829Z,992.33
2019-03-10T10:11:43.783Z,992.42
2019-03-10T10:12:43.740Z,992.32
2019-03-10T10:13:43.705Z,992.51
2019-03-10T10:14:43.675Z,992.45
2019-03-10T10:15:43.645Z,992.46
2019-03-10T10:16:43.632Z,992.27
2019-03-10T10:17:43.588Z,992.45
2019-03-10T10:18:43.579Z,992.46
2019-03-10T10:19:43.533Z,992.53
2019-03-10T10:20:43.504Z,992.32
2019-03-10T10:21:43.482Z,992.62
2019-03-10T10:22:43.456Z,992.41
2019-03-10T10:23:43.413Z,992.44
2019-03-10T10:24:43.381Z,992.46
2019-03-10T10:25:43.354Z,992.45
2019-03-10T10:26:43.320Z,992.40
2019-03-10T10:27:43.283Z,992.34
2019-03-10T10:28:43.251Z,992.39
2019-03-10T10:29:43.235Z,992.51
2019-03-10T10:30:43.199Z,992.53
2019-03-10T10:31:43.159Z,992.56
2019-03-10T10:32:43.121Z,992.51
2019-03-10T10:33:43.095Z,992.49
2019-03-10T10:34:43.097Z,992.46
2019-03-10T10:35:43.035Z,992.57
2019-03-10T10:36:43.001Z,992.45
2019-03-10T10:37:42.971Z,992.47
2019-03-10T10:38:42.945Z,992.54
2019-03-10T10:39:42.907Z,992.60
2019-03-10T10:40:42.868Z,992.54
2019-03-10T10:41:42.834Z,992.39
2019-03-10T10:42:42.809Z,992.26
2019-03-10T10:43:42.769Z,992.17
2019-03-10T10:44:42.732Z,992.17
2019-03-10T10:45:42.708Z,992.18
2019-03-10T10:46:42.686Z,992.07
2019-03-10T10:47:42.658Z,992.08
2019-03-10T10:48:42.605Z,992.10
2019-03-10T10:49:42.574Z,992.14
2019-03-10T10:50:42.546Z,992.07
2019-03-10T10:51:42.514Z,992.22
2019-03-10T10:52:42.474Z,992.09
2019-03-10T10:53:42.437Z,992.09
2019-03-10T10:54:42.417Z,992.18
2019-03-10T10:55:42.377Z,992.10
2019-03-10T10:56:42.356Z,992.10
2019-03-10T10:57:42.312Z,992.04
2019-03-10T10:58:42.276Z,992.09
2019-03-10T10:59:42.246Z,991.98
2019-03-10T11:00:42.223Z,992.01
2019-03-10T11:01:42.191Z,991.96
2019-03-10T11:02:42.165Z,991.99
2019-03-10T11:03:42.152Z,992.03
2019-03-10T11:04:42.096Z,991.89
2019-03-10T11:05:42.072Z,991.85
2019-03-10T11:06:42.032Z,991.95
2019-03-10T11:07:42.016Z,991.89
2019-03-10T11:08:41.982Z,992.03
2019-03-10T11:09:41.979Z,991.97
2019-03-10T11:10:41.922Z,991.99
2019-03-10T11:11:42.216Z,991.78
2019-03-10T11:12:41.868Z,992.03
2019-03-10T11:13:41.836Z,992.10
2019-03-10T11:14:41.811Z,992.07
2019-03-10T11:15:41.782Z,991.76
2019-03-10T11:16:41.779Z,991.68
2019-03-10T11:17:41.744Z,991.68
2019-03-10T11:18:41.703Z,991.91
2019-03-10T11:19:41.679Z,991.96
2019-03-10T11:20:41.641Z,991.81
2019-03-10T11:21:41.614Z,991.88
2019-03-10T11:22:41.580Z,991.79
2019-03-10T11:23:41.553Z,991.78
2019-03-10T11:24:41.528Z,991.79
2019-03-10T11:25:41.501Z,991.76
2019-03-10T11:26:41.477Z,991.79
2019-03-10T11:27:41.440Z,991.77
2019-03-10T11:28:41.438Z,991.81
2019-03-10T11:29:41.399Z,991.77
2019-03-10T11:30:41.365Z,991.83
2019-03-10T11:31:41.339Z,991.71
2019-03-10T11:32:41.308Z,991.84
2019-03-10T11:33:41.285Z,991.77
2019-03-10T11:34:41.254Z,991.96
2019-03-10T11:35:41.222Z,991.92
2019-03-10T11:36:41.197Z,991.73
2019-03-10T11:37:41.181Z,991.99
2019-03-10T11:38:41.144Z,991.88
2019-03-10T11:39:41.119Z,992.16
2019-03-10T11:40:41.083Z,991.94
2019-03-10T11:41:42.205Z,991.99
2019-03-10T11:42:41.013Z,992.20
2019-03-10T11:43:40.988Z,992.34
2019-03-10T11:44:40.960Z,992.10
2019-03-10T11:45:40.936Z,992.09
2019-03-10T11:46:40.901Z,992.35
2019-03-10T11:47:40.874Z,992.35
2019-03-10T11:48:40.840Z,992.50
2019-03-10T11:49:40.816Z,992.31
2019-03-10T11:50:40.785Z,992.41
2019-03-10T11:51:40.751Z,992.43
2019-03-10T11:52:40.726Z,992.51
2019-03-10T11:53:40.690Z,992.56
2019-03-10T11:54:40.661Z,992.40
2019-03-10T11:55:40.707Z,992.44
2019-03-10T11:56:42.153Z,992.25
2019-03-10T11:57:40.584Z,992.63
2019-03-10T11:58:40.549Z,992.46
2019-03-10T11:59:40.530Z,992.57
2019-03-10T12:00:40.491Z,992.35
2019-03-10T12:01:40.460Z,992.53
2019-03-10T12:02:40.434Z,992.43
2019-03-10T12:03:40.409Z,992.41
2019-03-10T12:04:40.395Z,992.41
2019-03-10T12:05:40.336Z,992.71
2019-03-10T12:06:40.320Z,992.52
2019-03-10T12:07:40.274Z,992.62
2019-03-10T12:08:40.245Z,992.68
2019-03-10T12:09:40.225Z,992.58
2019-03-10T12:10:40.190Z,992.60
2019-03-10T12:11:40.170Z,992.54
2019-03-10T12:12:40.153Z,992.59
2019-03-10T12:13:40.101Z,992.67
2019-03-10T12:14:40.081Z,992.71
2019-03-10T12:15:40.133Z,992.59
2019-03-10T12:16:40.006Z,992.57
2019-03-10T12:17:39.993Z,992.70
2019-03-10T12:18:40.100Z,992.76
2019-03-10T12:19:39.910Z,992.71